Time;durP1;ratioP1;P1;durP2;ratioP2;P2;SDS_P1;SDS_P2;PMS_P1;PMS_P2;Temp;Humidity;BMP_temperature;BMP_pressure;BME280_temperature;BME280_humidity;BME280_pressure;Samples;Min_cycle;Max_cycle;Signal;HPM_P1;HPM_P2
2021/12/07 00:01:54;;;;;;;8.90;3.00;;;;;;;-149.78;100.00;50651.38;5032153;28;20056;-67
2021/12/07 00:04:20;;;;;;;12.15;3.53;;;;;;;-149.78;100.00;50596.63;5031682;28;20041;-67
2021/12/07 00:06:47;;;;;;;14.13;3.17;;;;;;;-149.78;100.00;50575.09;5024554;28;20065;-67
2021/12/07 00:09:16;;;;;;;8.82;3.00;;;;;;;-149.78;100.00;50600.53;5031934;28;20061;-67
2021/12/07 00:11:42;;;;;;;8.38;3.03;;;;;;;-149.78;100.00;50639.66;5030720;28;20045;-67
2021/12/07 00:14:13;;;;;;;11.90;3.50;;;;;;;-149.78;100.00;50600.53;5030635;28;20071;-67
2021/12/07 00:16:44;;;;;;;21.50;4.35;;;;;;;-149.78;100.00;50627.91;5031895;28;20152;-67
2021/12/07 00:19:11;;;;;;;11.93;4.45;;;;;;;-149.78;100.00;50635.72;5031275;28;20071;-67
2021/12/07 00:21:38;;;;;;;10.70;4.53;;;;;;;-149.78;100.00;50608.34;5029248;28;20099;-67
2021/12/07 00:24:05;;;;;;;10.98;4.00;;;;;;;-149.78;100.00;50659.19;5032309;28;20039;-67
2021/12/07 00:26:30;;;;;;;8.60;3.85;;;;;;;-149.78;100.00;50604.44;5031738;28;20111;-67
2021/12/07 00:28:58;;;;;;;14.30;4.43;;;;;;;-149.78;100.00;50624.00;5032178;28;20453;-66
2021/12/07 00:31:30;;;;;;;18.40;4.03;;;;;;;-149.78;100.00;50580.97;5032357;28;20616;-67
2021/12/07 00:36:32;;;;;;;11.70;3.80;;;;;;;-149.78;100.00;50627.91;5030292;28;20003;-67
2021/12/07 00:38:58;;;;;;;10.38;3.95;;;;;;;-149.78;100.00;50620.09;5031026;28;20558;-67
2021/12/07 00:41:23;;;;;;;11.70;4.80;;;;;;;-149.78;100.00;50624.00;5028628;28;20393;-67
2021/12/07 00:43:49;;;;;;;16.35;4.40;;;;;;;-149.78;100.00;50614.22;5028651;28;20037;-67
2021/12/07 00:46:15;;;;;;;17.25;4.35;;;;;;;-149.78;100.00;50635.72;5030328;28;20029;-67
2021/12/07 00:48:40;;;;;;;14.60;4.38;;;;;;;-149.78;100.00;50610.31;5029045;28;20034;-67
2021/12/07 00:51:07;;;;;;;8.32;3.50;;;;;;;-149.78;100.00;50651.38;5019259;28;20076;-67
2021/12/07 00:53:33;;;;;;;12.15;3.53;;;;;;;-149.78;100.00;50600.53;5034834;28;20111;-67
2021/12/07 00:56:01;;;;;;;16.00;3.95;;;;;;;-149.78;100.00;50624.00;5033903;28;20116;-67
2021/12/07 00:58:28;;;;;;;14.98;4.38;;;;;;;-149.78;100.00;50610.31;5032992;28;20713;-66
2021/12/07 01:01:06;;;;;;;19.33;4.00;;;;;;;-149.78;100.00;50624.00;5033404;28;20078;-67
2021/12/07 01:03:33;;;;;;;14.00;4.70;;;;;;;-149.78;100.00;50616.19;5030880;28;20108;-66
2021/12/07 01:06:16;;;;;;;12.98;4.80;;;;;;;-149.78;100.00;50612.25;5028066;28;20441;-66
2021/12/07 01:25:22;;;;;;;18.95;4.38;;;;;;;-149.78;100.00;50649.44;5030734;28;20496;-67
2021/12/07 01:27:50;;;;;;;15.60;4.07;;;;;;;-149.78;100.00;50596.63;5033420;28;20033;-67
2021/12/07 01:30:30;;;;;;;10.68;3.72;;;;;;;-149.78;100.00;50606.41;5033742;28;20030;-67
2021/12/07 01:35:45;;;;;;;11.23;3.65;;;;;;;-149.78;100.00;50647.47;5031684;28;20033;-67
2021/12/07 02:00:13;;;;;;;14.52;3.85;;;;;;;-149.78;100.00;50612.25;5017935;28;20435;-67
2021/12/07 02:02:39;;;;;;;10.95;4.18;;;;;;;-149.78;100.00;50635.72;5034195;28;20049;-67
2021/12/07 02:05:05;;;;;;;13.40;3.45;;;;;;;-149.78;100.00;50633.78;5021872;28;20059;-67
2021/12/07 02:07:31;;;;;;;8.73;3.08;;;;;;;-149.78;100.00;50631.81;5033679;28;20500;-67
2021/12/07 02:10:04;;;;;;;13.90;3.60;;;;;;;-149.78;100.00;50639.66;5035056;28;20473;-66
2021/12/07 02:12:32;;;;;;;;;;;;;;;-149.78;100.00;50631.81;5031762;28;20053;-67
2021/12/07 02:14:59;;;;;;;10.65;3.03;;;;;;;-149.78;100.00;50624.00;5044510;28;20356;-66
2021/12/07 02:17:26;;;;;;;9.20;3.15;;;;;;;-149.78;100.00;50635.72;5033903;28;20037;-66
2021/12/07 02:19:52;;;;;;;11.32;3.63;;;;;;;-149.78;100.00;50655.28;5032366;28;20048;-67
2021/12/07 02:22:18;;;;;;;12.00;3.25;;;;;;;-149.78;100.00;50639.66;5026705;28;20033;-66
2021/12/07 02:24:44;;;;;;;12.68;3.15;;;;;;;-149.78;100.00;50625.94;5031736;28;20116;-67
2021/12/07 02:27:10;;;;;;;13.35;3.28;;;;;;;-149.78;100.00;50620.09;5034498;28;20517;-66
2021/12/07 02:29:36;;;;;;;16.40;3.85;;;;;;;-149.78;100.00;50631.81;5032095;28;20040;-67
2021/12/07 02:32:03;;;;;;;10.40;2.88;;;;;;;-149.78;100.00;50608.34;5034137;28;20061;-67
2021/12/07 02:34:29;;;;;;;13.32;2.90;;;;;;;-149.78;100.00;50631.81;5034203;28;20033;-67
2021/12/07 02:36:55;;;;;;;11.38;2.80;;;;;;;-149.78;100.00;50639.66;5032250;28;20038;-67
2021/12/07 02:39:31;;;;;;;11.15;2.78;;;;;;;-149.78;100.00;50631.81;5033108;28;20065;-67
2021/12/07 02:41:57;;;;;;;12.43;3.08;;;;;;;-149.78;100.00;50563.38;5028568;28;20033;-67
2021/12/07 02:44:23;;;;;;;11.05;2.78;;;;;;;-149.78;100.00;50624.00;5034254;28;20029;-67
2021/12/07 02:46:49;;;;;;;12.63;2.45;;;;;;;-149.78;100.00;50659.19;5026233;28;20040;-67
2021/12/07 02:49:15;;;;;;;11.43;2.53;;;;;;;-149.78;100.00;50625.94;5033478;28;20064;-66
2021/12/07 02:51:40;;;;;;;10.57;2.65;;;;;;;-149.78;100.00;50643.56;5032278;28;20037;-67
2021/12/07 02:54:07;;;;;;;13.90;3.03;;;;;;;-149.78;100.00;50584.88;5030218;28;20111;-66
2021/12/07 02:56:32;;;;;;;11.60;2.45;;;;;;;-149.78;100.00;50616.19;5031978;28;20053;-67
2021/12/07 02:59:02;;;;;;;10.55;2.65;;;;;;;-149.78;100.00;50565.31;5033504;28;20040;-67
2021/12/07 03:01:31;;;;;;;10.30;2.78;;;;;;;-149.78;100.00;50620.09;5030963;28;20037;-66
2021/12/07 03:04:12;;;;;;;13.20;2.65;;;;;;;-149.78;100.00;50649.44;5033387;28;20029;-66
2021/12/07 03:07:12;;;;;;;13.35;2.10;;;;;;;-149.78;100.00;50659.19;5033342;28;20086;-66
2021/12/07 03:25:58;;;;;;;11.48;1.90;;;;;;;-149.78;100.00;50633.78;5031246;28;20091;-66
2021/12/07 03:28:24;;;;;;;14.30;2.33;;;;;;;-149.78;100.00;50627.91;5032673;28;20033;-66
2021/12/07 03:30:50;;;;;;;12.50;3.50;;;;;;;-149.78;100.00;50616.19;5032372;28;20429;-67
2021/12/07 03:33:16;;;;;;;9.57;2.70;;;;;;;-149.78;100.00;50635.72;5030367;28;20380;-67
2021/12/07 03:35:41;;;;;;;9.30;3.05;;;;;;;-149.78;100.00;50577.06;5021034;28;20037;-66
2021/12/07 03:38:08;;;;;;;11.10;3.80;;;;;;;-149.78;100.00;50618.13;5032292;28;20037;-67
2021/12/07 03:40:36;;;;;;;8.73;3.70;;;;;;;-149.78;100.00;50592.72;5017817;28;20535;-67
2021/12/07 03:43:03;;;;;;;13.80;4.40;;;;;;;-149.78;100.00;50584.88;5028719;28;20473;-67
2021/12/07 03:45:29;;;;;;;14.00;3.97;;;;;;;-149.78;100.00;50592.72;5031198;28;20045;-66
2021/12/07 03:47:55;;;;;;;12.68;3.55;;;;;;;-149.78;100.00;50600.53;5029822;28;20029;-67
2021/12/07 03:50:22;;;;;;;9.25;2.83;;;;;;;-149.78;100.00;50651.38;5031880;28;20389;-66
2021/12/07 03:52:52;;;;;;;13.48;2.00;;;;;;;-149.78;100.00;50624.00;5030040;28;20029;-67
2021/12/07 03:55:18;;;;;;;8.52;1.63;;;;;;;-149.78;100.00;50594.66;5027962;28;20033;-67
2021/12/07 03:57:44;;;;;;;7.55;2.00;;;;;;;-149.78;100.00;50622.03;5029330;28;20029;-67
2021/12/07 04:00:14;;;;;;;10.35;2.28;;;;;;;-149.78;100.00;50606.41;5044767;28;20037;-66
2021/12/07 04:02:41;;;;;;;5.10;1.25;;;;;;;-149.78;100.00;50655.28;5031190;28;20040;-67
2021/12/07 04:05:12;;;;;;;9.02;1.75;;;;;;;-149.78;100.00;50649.44;5030244;28;20029;-66
2021/12/07 04:07:39;;;;;;;13.30;1.80;;;;;;;-149.78;100.00;50670.94;5029295;28;20056;-66
2021/12/07 04:10:06;;;;;;;9.50;1.55;;;;;;;-149.78;100.00;50598.56;5028741;28;20041;-66
2021/12/07 04:12:33;;;;;;;5.85;1.48;;;;;;;-149.78;100.00;50604.44;5031981;28;20124;-67
2021/12/07 04:15:00;;;;;;;6.43;2.00;;;;;;;-149.78;100.00;50596.63;5023091;28;20511;-67
2021/12/07 04:17:26;;;;;;;10.30;1.55;;;;;;;-149.78;100.00;50616.19;5031845;28;20116;-66
2021/12/07 04:19:51;;;;;;;7.00;1.25;;;;;;;-149.78;100.00;50610.31;5031407;28;20117;-66
2021/12/07 04:22:17;;;;;;;9.25;1.85;;;;;;;-149.78;100.00;50602.47;5029193;28;20440;-66
2021/12/07 04:24:43;;;;;;;6.90;1.55;;;;;;;-149.78;100.00;50616.19;5032293;28;20091;-67
2021/12/07 04:27:08;;;;;;;8.98;1.88;;;;;;;-149.78;100.00;50647.47;5031342;28;20037;-67
2021/12/07 04:29:34;;;;;;;5.22;1.63;;;;;;;-149.78;100.00;50588.78;5032447;28;20029;-66
2021/12/07 04:32:00;;;;;;;10.68;1.40;;;;;;;-149.78;100.00;50635.72;5018785;28;20037;-66
2021/12/07 04:34:25;;;;;;;12.85;1.85;;;;;;;-149.78;100.00;50612.25;5029561;28;20108;-66
2021/12/07 04:36:51;;;;;;;12.32;1.58;;;;;;;-149.78;100.00;50561.41;5023158;28;20489;-67
2021/12/07 04:39:17;;;;;;;8.52;1.45;;;;;;;-149.78;100.00;50627.91;5032805;28;20045;-66
2021/12/07 04:41:45;;;;;;;5.05;1.65;;;;;;;-149.78;100.00;50635.72;5030642;28;20078;-66
2021/12/07 04:44:11;;;;;;;12.20;1.58;;;;;;;-149.78;100.00;50620.09;5031482;28;20037;-66
2021/12/07 04:46:45;;;;;;;9.02;1.80;;;;;;;-149.78;100.00;50577.06;5018520;28;20107;-66
2021/12/07 04:59:37;;;;;;;6.68;1.45;;;;;;;-149.78;100.00;50604.44;5031266;28;20048;-67
2021/12/07 05:02:04;;;;;;;7.50;1.25;;;;;;;-149.78;100.00;50616.19;5032188;28;20029;-67
2021/12/07 05:04:33;;;;;;;8.07;1.80;;;;;;;-149.78;100.00;50639.66;5032603;28;20042;-67
2021/12/07 05:07:12;;;;;;;9.93;2.00;;;;;;;-149.78;100.00;50608.34;5031946;28;20037;-67
2021/12/07 05:10:08;;;;;;;3.70;1.15;;;;;;;-149.78;100.00;50584.88;5012533;28;20069;-67
2021/12/07 05:15:54;;;;;;;4.38;1.27;;;;;;;-149.78;100.00;50635.72;5015149;28;20428;-66
2021/12/07 05:39:33;;;;;;;9.68;1.85;;;;;;;-149.78;100.00;50608.34;5037950;28;20389;-67
2021/12/07 05:41:59;;;;;;;9.40;1.58;;;;;;;-149.78;100.00;50620.09;5036071;28;20071;-66
2021/12/07 05:44:25;;;;;;;6.32;1.83;;;;;;;-149.78;100.00;50653.34;5034487;28;20450;-66
2021/12/07 05:46:51;;;;;;;6.68;1.60;;;;;;;-149.78;100.00;50616.19;5035148;28;20041;-67
2021/12/07 05:49:17;;;;;;;10.15;2.10;;;;;;;-149.78;100.00;50657.25;5029288;28;20030;-66
2021/12/07 05:51:42;;;;;;;6.53;1.58;;;;;;;-149.78;100.00;50641.59;5033439;28;20078;-66
2021/12/07 05:54:08;;;;;;;13.45;1.65;;;;;;;-149.78;100.00;50625.94;5034845;28;20045;-65
2021/12/07 05:56:34;;;;;;;8.57;1.40;;;;;;;-149.78;100.00;50663.13;5035014;28;20037;-65
2021/12/07 05:58:59;;;;;;;4.15;1.50;;;;;;;-149.78;100.00;50651.38;5027885;28;20046;-65
2021/12/07 06:01:25;;;;;;;7.50;1.50;;;;;;;-149.78;100.00;50670.94;5031536;28;20041;-66
2021/12/07 06:03:51;;;;;;;12.48;1.75;;;;;;;-149.78;100.00;50651.38;5034662;28;20131;-66
2021/12/07 06:06:17;;;;;;;7.72;1.58;;;;;;;-149.78;100.00;50598.56;5035338;28;20037;-65
2021/12/07 06:08:42;;;;;;;10.80;2.15;;;;;;;-149.78;100.00;50606.41;5034817;28;20029;-65
2021/12/07 06:11:08;;;;;;;8.10;1.90;;;;;;;-149.78;100.00;50604.44;5035116;28;20037;-65
2021/12/07 06:13:34;;;;;;;10.68;1.85;;;;;;;-149.78;100.00;50639.66;5034492;28;20037;-65
2021/12/07 06:16:05;;;;;;;7.22;1.48;;;;;;;-149.78;100.00;50624.00;5033979;28;20473;-66
2021/12/07 06:18:31;;;;;;;9.82;1.77;;;;;;;-149.78;100.00;50663.13;5034951;28;20044;-66
2021/12/07 06:20:56;;;;;;;6.20;1.80;;;;;;;-149.78;100.00;50674.84;5033791;28;20033;-66
2021/12/07 06:23:23;;;;;;;10.68;2.20;;;;;;;-149.78;100.00;50622.03;5034523;28;20366;-65
2021/12/07 06:25:49;;;;;;;7.93;1.95;;;;;;;-149.78;100.00;50651.38;5034598;28;20042;-66
2021/12/07 06:28:17;;;;;;;5.90;1.73;;;;;;;-149.78;100.00;50629.88;5019916;28;20091;-66
2021/12/07 06:30:44;;;;;;;10.55;1.75;;;;;;;-149.78;100.00;50627.91;5034494;28;20045;-66
2021/12/07 06:33:11;;;;;;;7.90;1.98;;;;;;;-149.78;100.00;50651.38;5033675;28;20473;-66
2021/12/07 06:35:37;;;;;;;5.68;1.65;;;;;;;-149.78;100.00;50629.88;5034180;28;20025;-66
2021/12/07 06:38:03;;;;;;;9.82;2.13;;;;;;;-149.78;100.00;50604.44;5033083;28;20088;-66
2021/12/07 06:40:29;;;;;;;10.65;1.88;;;;;;;-149.78;100.00;50647.47;5025864;28;20447;-66
2021/12/07 06:42:59;;;;;;;11.88;2.88;;;;;;;-149.78;100.00;50627.91;5033093;28;20088;-66
2021/12/07 06:45:27;;;;;;;11.77;2.47;;;;;;;-149.78;100.00;50641.59;5028342;28;20126;-67
2021/12/07 06:47:53;;;;;;;7.00;2.42;;;;;;;-149.78;100.00;50631.81;5024829;28;20128;-67
2021/12/07 06:50:22;;;;;;;14.05;2.40;;;;;;;-149.78;100.00;50608.34;5033814;28;20432;-67
2021/12/07 06:52:47;;;;;;;10.18;2.90;;;;;;;-149.78;100.00;50624.00;5033193;28;20029;-66
2021/12/07 06:55:13;;;;;;;10.85;2.28;;;;;;;-149.78;100.00;50635.72;5032147;28;20379;-66
2021/12/07 06:57:39;;;;;;;13.02;3.22;;;;;;;-149.78;100.00;50651.38;5033883;28;20029;-66
2021/12/07 07:00:08;;;;;;;17.10;2.83;;;;;;;-149.78;100.00;50639.66;5032364;28;20065;-66
2021/12/07 07:02:34;;;;;;;13.43;3.22;;;;;;;-149.78;100.00;50645.50;5033672;28;20492;-67
2021/12/07 07:05:02;;;;;;;19.02;3.70;;;;;;;-149.78;100.00;50639.66;5033614;28;20045;-67
2021/12/07 07:07:28;;;;;;;14.75;3.30;;;;;;;-149.78;100.00;50584.88;5033159;28;20117;-66
2021/12/07 07:09:53;;;;;;;12.05;4.15;;;;;;;-149.78;100.00;50667.03;5032387;28;20125;-66
2021/12/07 07:12:19;;;;;;;17.58;4.32;;;;;;;-149.78;100.00;50608.34;5031736;28;20049;-66
2021/12/07 07:14:46;;;;;;;16.15;4.15;;;;;;;-149.78;100.00;50612.25;5031617;28;20098;-66
2021/12/07 07:17:14;;;;;;;13.55;4.10;;;;;;;-149.78;100.00;50633.78;5032819;28;20468;-66
2021/12/07 07:19:40;;;;;;;16.50;4.57;;;;;;;-149.78;100.00;50616.19;5032908;28;20025;-67
2021/12/07 07:22:06;;;;;;;16.50;4.47;;;;;;;-149.78;100.00;50647.47;5031688;28;20354;-64
2021/12/07 07:24:32;;;;;;;16.35;5.50;;;;;;;-149.78;100.00;50655.28;5027644;28;20029;-66
2021/12/07 07:26:59;;;;;;;18.92;4.88;;;;;;;-149.78;100.00;50686.59;5032672;28;20389;-68
2021/12/07 07:29:26;;;;;;;15.50;5.65;;;;;;;-149.78;100.00;50643.56;5033026;28;20476;-67
2021/12/07 07:31:51;;;;;;;25.00;6.15;;;;;;;-149.78;100.00;50618.13;5033455;28;20043;-66
2021/12/07 07:34:17;;;;;;;22.85;6.60;;;;;;;-149.78;100.00;50624.00;5031723;28;20091;-64
2021/12/07 07:36:43;;;;;;;16.17;5.45;;;;;;;-149.78;100.00;50608.34;5020018;28;20088;-67
2021/12/07 07:39:11;;;;;;;20.08;5.78;;;;;;;-149.78;100.00;50620.09;5027788;28;20040;-67
2021/12/07 07:41:37;;;;;;;21.70;5.68;;;;;;;-149.78;100.00;50657.25;5024480;28;20030;-67
2021/12/07 07:44:03;;;;;;;15.68;4.78;;;;;;;-149.78;100.00;50645.50;5030035;28;20182;-66
2021/12/07 07:46:29;;;;;;;17.85;5.68;;;;;;;-149.78;100.00;50635.72;5024979;28;20041;-66
2021/12/07 07:48:54;;;;;;;15.38;5.32;;;;;;;-149.78;100.00;50620.09;5030844;28;20044;-66
2021/12/07 07:51:20;;;;;;;19.27;4.97;;;;;;;-149.78;100.00;50655.28;5033107;28;20060;-66
2021/12/07 07:53:46;;;;;;;13.70;5.53;;;;;;;-149.78;100.00;50624.00;5025584;28;20132;-66
2021/12/07 07:56:12;;;;;;;15.95;5.57;;;;;;;-149.78;100.00;50659.19;5022818;28;20034;-66
2021/12/07 07:58:37;;;;;;;20.05;5.63;;;;;;;-149.78;100.00;50631.81;5031678;28;20107;-67
2021/12/07 08:01:04;;;;;;;19.48;6.35;;;;;;;-149.78;100.00;50651.38;5030945;28;20041;-66
2021/12/07 08:03:30;;;;;;;27.75;6.45;;;;;;;-149.78;100.00;50653.34;5026501;28;20469;-65
2021/12/07 08:05:56;;;;;;;17.73;6.20;;;;;;;-149.78;100.00;50649.44;5032373;28;20033;-65
2021/12/07 08:08:22;;;;;;;19.02;5.28;;;;;;;-149.78;100.00;50657.25;5028344;28;20039;-65
2021/12/07 08:10:48;;;;;;;19.67;5.65;;;;;;;-149.78;100.00;50635.72;5032461;28;20050;-64
2021/12/07 08:13:16;;;;;;;15.73;6.03;;;;;;;-149.78;100.00;50620.09;5031766;28;20095;-67
2021/12/07 08:15:43;;;;;;;18.38;5.35;;;;;;;-149.78;100.00;50667.03;5026017;28;20033;-65
2021/12/07 08:18:14;;;;;;;14.93;5.03;;;;;;;-149.78;100.00;50627.91;5021383;28;20033;-66
2021/12/07 08:20:41;;;;;;;22.65;5.95;;;;;;;-149.78;100.00;50667.03;5028390;28;20116;-68
2021/12/07 08:23:07;;;;;;;16.45;5.03;;;;;;;-149.78;100.00;50645.50;5029597;28;20044;-66
2021/12/07 08:25:37;;;;;;;18.42;5.72;;;;;;;-149.78;100.00;50608.34;5029776;28;20405;-66
2021/12/07 08:28:04;;;;;;;18.20;5.47;;;;;;;-149.78;100.00;50627.91;5026830;28;20030;-66
2021/12/07 08:30:30;;;;;;;13.85;4.68;;;;;;;-149.78;100.00;50670.94;5024567;28;20043;-66
2021/12/07 08:32:55;;;;;;;16.17;4.63;;;;;;;-149.78;100.00;50627.91;5030414;28;20052;-67
2021/12/07 08:35:22;;;;;;;18.58;4.75;;;;;;;-149.78;100.00;50678.75;5029977;28;20034;-65
2021/12/07 08:37:48;;;;;;;18.23;4.70;;;;;;;-149.78;100.00;50602.47;5025786;28;20029;-66
2021/12/07 08:40:18;;;;;;;15.02;4.30;;;;;;;-149.78;100.00;50627.91;5026154;28;20369;-66
2021/12/07 08:42:45;;;;;;;11.57;3.70;;;;;;;-149.78;100.00;50604.44;5032728;28;20108;-66
2021/12/07 08:45:11;;;;;;;16.83;3.97;;;;;;;-149.78;100.00;50657.25;5031883;28;20125;-65
2021/12/07 08:47:37;;;;;;;14.98;4.15;;;;;;;-149.78;100.00;50620.09;5030975;28;20051;-66
2021/12/07 08:50:07;;;;;;;14.35;4.45;;;;;;;-149.78;100.00;50667.03;5026940;28;20033;-66
2021/12/07 08:52:33;;;;;;;14.27;4.03;;;;;;;-149.78;100.00;50659.19;5027538;28;20035;-66
2021/12/07 09:00:15;;;;;;;20.60;4.05;;;;;;;-149.78;100.00;50635.72;5025770;28;20294;-66
2021/12/07 09:02:41;;;;;;;15.82;3.50;;;;;;;-149.78;100.00;50653.34;5031574;28;20104;-66
2021/12/07 09:05:07;;;;;;;19.27;4.43;;;;;;;-149.78;100.00;50606.41;5030585;28;20060;-65
2021/12/07 09:07:34;;;;;;;15.63;3.67;;;;;;;-149.78;100.00;50657.25;5022431;28;20040;-65
2021/12/07 09:10:01;;;;;;;12.48;3.70;;;;;;;-149.78;100.00;50649.44;5029003;28;20033;-64
2021/12/07 09:12:26;;;;;;;14.93;3.38;;;;;;;-149.78;100.00;50631.81;5029149;28;20061;-64
2021/12/07 09:14:53;;;;;;;15.38;3.80;;;;;;;-149.78;100.00;50670.94;5033162;28;20040;-64
2021/12/07 09:17:19;;;;;;;9.27;3.40;;;;;;;-149.78;100.00;50643.56;5032484;28;20029;-66
2021/12/07 09:19:45;;;;;;;11.40;3.00;;;;;;;-149.78;100.00;50635.72;5029359;28;20042;-65
2021/12/07 09:22:10;;;;;;;8.85;2.75;;;;;;;-149.78;100.00;50616.19;5033613;28;20087;-66
2021/12/07 09:24:36;;;;;;;12.68;3.25;;;;;;;-149.78;100.00;50627.91;5033042;28;20034;-65
2021/12/07 09:27:03;;;;;;;16.38;3.13;;;;;;;-149.78;100.00;50596.63;5034812;28;20052;-66
2021/12/07 09:29:30;;;;;;;8.02;2.50;;;;;;;-149.78;100.00;50620.09;5033992;28;20029;-66
2021/12/07 09:31:57;;;;;;;9.63;2.60;;;;;;;-149.78;100.00;50657.25;5035498;28;20465;-66
2021/12/07 09:34:22;;;;;;;14.10;2.60;;;;;;;-149.78;100.00;50647.47;5034491;28;20120;-66
2021/12/07 09:36:48;;;;;;;11.35;2.78;;;;;;;-149.78;100.00;50649.44;5024098;28;20460;-67
2021/12/07 09:39:17;;;;;;;16.27;3.00;;;;;;;-149.78;100.00;50600.53;5030271;28;20038;-68
2021/12/07 09:41:44;;;;;;;13.25;2.90;;;;;;;-149.78;100.00;50608.34;5020048;28;20064;-67
2021/12/07 09:44:13;;;;;;;15.00;3.22;;;;;;;-149.78;100.00;50651.38;5028640;28;20103;-68
2021/12/07 09:46:40;;;;;;;6.75;2.90;;;;;;;-149.78;100.00;50635.72;5034450;28;20477;-68
2021/12/07 09:49:07;;;;;;;11.18;2.53;;;;;;;-149.78;100.00;50633.78;5028850;28;20079;-67
2021/12/07 09:51:34;;;;;;;10.73;2.88;;;;;;;-149.78;100.00;50641.59;5032988;28;20029;-68
2021/12/07 09:54:01;;;;;;;12.82;2.42;;;;;;;-149.78;100.00;50667.03;5034479;28;20041;-68
2021/12/07 09:56:29;;;;;;;17.10;3.00;;;;;;;-149.78;100.00;50649.44;5034569;28;20507;-68
2021/12/07 09:58:56;;;;;;;10.20;3.25;;;;;;;-149.78;100.00;50649.44;5034757;28;20038;-68
2021/12/07 10:01:24;;;;;;;12.60;2.63;;;;;;;-149.78;100.00;50618.13;5034487;28;20041;-67
2021/12/07 10:03:51;;;;;;;8.38;2.88;;;;;;;-149.78;100.00;50604.44;5028596;28;20532;-67
2021/12/07 10:06:17;;;;;;;10.82;2.33;;;;;;;-149.78;100.00;50588.78;5025124;28;20483;-68
2021/12/07 10:08:43;;;;;;;18.58;2.75;;;;;;;-149.78;100.00;50635.72;5034092;28;20112;-67
2021/12/07 10:11:10;;;;;;;9.88;2.25;;;;;;;-149.78;100.00;50624.00;5034856;28;20044;-68
2021/12/07 10:13:39;;;;;;;6.35;1.70;;;;;;;-149.78;100.00;50573.16;5032657;28;20113;-68
2021/12/07 10:16:07;;;;;;;9.40;1.98;;;;;;;-149.78;100.00;50622.03;5035319;28;20481;-67
2021/12/07 10:18:36;;;;;;;8.73;1.92;;;;;;;-149.78;100.00;50663.13;5033790;28;20133;-68
2021/12/07 10:21:13;;;;;;;8.60;1.90;;;;;;;-149.78;100.00;50620.09;5034686;28;20034;-68
2021/12/07 10:23:49;;;;;;;6.75;1.63;;;;;;;-149.78;100.00;50606.41;5016995;28;20030;-67
2021/12/07 10:26:16;;;;;;;10.48;1.80;;;;;;;-149.78;100.00;50596.63;5034633;28;20037;-67
2021/12/07 10:28:47;;;;;;;8.00;1.58;;;;;;;-149.78;100.00;50610.31;5030022;28;20461;-67
2021/12/07 10:31:36;;;;;;;13.27;1.60;;;;;;;-149.78;100.00;50624.00;5034256;28;20519;-67
2021/12/07 10:34:04;;;;;;;9.48;1.48;;;;;;;-149.78;100.00;50643.56;5032362;28;20381;-67
2021/12/07 10:37:00;;;;;;;9.82;1.67;;;;;;;-149.78;100.00;50629.88;5033880;28;20033;-68
2021/12/07 10:39:32;;;;;;;11.20;1.63;;;;;;;-149.78;100.00;50584.88;5028512;28;20077;-67
2021/12/07 10:42:04;;;;;;;6.50;1.45;;;;;;;-149.78;100.00;50620.09;5032939;28;20041;-67
2021/12/07 10:44:33;;;;;;;6.68;1.50;;;;;;;-149.78;100.00;50604.44;5034146;28;20034;-66
2021/12/07 10:46:59;;;;;;;8.75;1.40;;;;;;;-149.78;100.00;50590.75;5031409;28;20033;-67
2021/12/07 10:49:38;;;;;;;4.25;1.40;;;;;;;-149.78;100.00;50627.91;5033883;28;20564;-67
2021/12/07 10:52:18;;;;;;;7.20;1.70;;;;;;;-149.78;100.00;50584.88;5024064;28;20033;-66
2021/12/07 10:54:55;;;;;;;13.90;1.88;;;;;;;-149.78;100.00;50592.72;5030638;28;20049;-68
2021/12/07 10:57:39;;;;;;;9.30;1.92;;;;;;;-149.78;100.00;50612.25;5030404;28;20034;-66
2021/12/07 11:00:34;;;;;;;11.82;2.05;;;;;;;-149.78;100.00;50616.19;5034326;28;20079;-65
2021/12/07 11:03:02;;;;;;;9.68;1.77;;;;;;;-149.78;100.00;50561.41;5028164;28;20335;-66
2021/12/07 11:05:36;;;;;;;13.23;2.47;;;;;;;-149.78;100.00;50565.31;5033627;28;20095;-67
2021/12/07 11:08:05;;;;;;;8.15;1.75;;;;;;;-149.78;100.00;50596.63;5026689;28;20036;-68
2021/12/07 11:10:38;;;;;;;6.72;1.38;;;;;;;-149.78;100.00;50606.41;5033237;28;20370;-67
2021/12/07 11:13:18;;;;;;;7.80;1.52;;;;;;;-149.78;100.00;50608.34;5033745;28;20045;-67
2021/12/07 11:15:49;;;;;;;10.13;2.13;;;;;;;-149.78;100.00;50610.31;5034188;28;20423;-66
2021/12/07 11:18:17;;;;;;;11.68;1.42;;;;;;;-149.78;100.00;50604.44;5022928;28;20291;-67
2021/12/07 11:20:43;;;;;;;10.60;2.20;;;;;;;-149.78;100.00;50565.31;5027760;28;20117;-67
2021/12/07 11:23:12;;;;;;;10.13;1.75;;;;;;;-149.78;100.00;50627.91;5032996;28;20124;-67
2021/12/07 11:29:39;;;;;;;10.13;1.70;;;;;;;-149.78;100.00;50596.63;5033772;28;20037;-66
2021/12/07 11:31:52;;;;;;;14.88;2.60;;;;;;;-149.78;100.00;50620.09;5028192;28;20140;-67
2021/12/07 11:34:25;;;;;;;8.63;1.98;;;;;;;-149.78;100.00;50620.09;5031897;28;20033;-67
2021/12/07 11:36:53;;;;;;;;;;;;;;;-149.78;100.00;50596.63;5030982;28;20041;-67
2021/12/07 11:39:18;;;;;;;4.53;1.92;;;;;;;-149.78;100.00;50580.97;5031726;28;20273;-67
2021/12/07 11:41:47;;;;;;;7.45;1.42;;;;;;;-149.78;100.00;50610.31;5033656;28;20045;-67
2021/12/07 11:44:13;;;;;;;9.57;1.90;;;;;;;-149.78;100.00;50608.34;5032322;28;20690;-68
2021/12/07 11:46:47;;;;;;;11.13;1.88;;;;;;;-149.78;100.00;50604.44;5024155;28;20037;-67
2021/12/07 11:49:21;;;;;;;9.88;1.80;;;;;;;-149.78;100.00;50608.34;5026555;28;20033;-67
2021/12/07 11:51:53;;;;;;;13.00;1.83;;;;;;;-149.78;100.00;50624.00;5029069;28;20025;-67
2021/12/07 11:54:23;;;;;;;7.20;2.15;;;;;;;-149.78;100.00;50592.72;5032800;28;20044;-67
2021/12/07 11:56:49;;;;;;;9.48;2.17;;;;;;;-149.78;100.00;50594.66;5031227;28;20032;-67
2021/12/07 11:59:15;;;;;;;6.95;2.10;;;;;;;-149.78;100.00;50573.16;5029720;28;20021;-67
2021/12/07 12:01:43;;;;;;;10.32;2.60;;;;;;;-149.78;100.00;50600.53;5021287;28;20385;-67
2021/12/07 12:04:08;;;;;;;11.75;1.95;;;;;;;-149.78;100.00;50571.19;5031382;28;20044;-67
2021/12/07 12:06:35;;;;;;;15.63;2.97;;;;;;;-149.78;100.00;50608.34;5030475;28;20029;-67
2021/12/07 12:09:03;;;;;;;13.93;2.90;;;;;;;-149.78;100.00;50592.72;5032148;28;20037;-67
2021/12/07 12:12:06;;;;;;;8.68;2.10;;;;;;;-149.78;100.00;50625.94;5018190;28;20045;-66
2021/12/07 12:15:03;;;;;;;12.45;2.63;;;;;;;-149.78;100.00;50608.34;5023143;28;20017;-67
2021/12/07 12:18:03;;;;;;;10.73;2.60;;;;;;;-149.78;100.00;50608.34;5016346;28;20057;-68
2021/12/07 12:20:38;;;;;;;10.13;2.78;;;;;;;-149.78;100.00;50639.66;5023824;28;20079;-68
2021/12/07 12:23:32;;;;;;;13.95;3.17;;;;;;;-149.78;100.00;50620.09;5033023;28;20112;-68
2021/12/07 12:26:02;;;;;;;15.35;2.90;;;;;;;-149.78;100.00;50584.88;5030968;28;20063;-67
2021/12/07 12:28:42;;;;;;;13.35;3.10;;;;;;;-149.78;100.00;50588.78;5028571;28;20025;-67
2021/12/07 12:31:09;;;;;;;10.68;2.10;;;;;;;-149.78;100.00;50584.88;5030275;28;20037;-67
2021/12/07 12:33:54;;;;;;;10.77;2.83;;;;;;;-149.78;100.00;50586.84;5026168;28;20076;-67
2021/12/07 12:36:22;;;;;;;9.82;2.47;;;;;;;-149.78;100.00;50561.41;5028119;28;20048;-67
2021/12/07 12:39:01;;;;;;;9.50;2.78;;;;;;;-149.78;100.00;50610.31;5026588;28;20045;-67
2021/12/07 12:41:27;;;;;;;9.63;2.80;;;;;;;-149.78;100.00;50596.63;5025408;28;20491;-67
2021/12/07 12:44:05;;;;;;;9.00;2.80;;;;;;;-149.78;100.00;50584.88;5024826;28;20121;-68
2021/12/07 12:46:33;;;;;;;10.95;2.97;;;;;;;-149.78;100.00;50573.16;5027436;28;20064;-68
2021/12/07 12:49:02;;;;;;;17.45;3.03;;;;;;;-149.78;100.00;50604.44;5030919;28;20051;-67
2021/12/07 12:51:42;;;;;;;9.48;2.58;;;;;;;-149.78;100.00;50612.25;5032453;28;20021;-68
2021/12/07 12:54:08;;;;;;;7.13;2.53;;;;;;;-149.78;100.00;50596.63;5033195;28;20040;-66
2021/12/07 12:56:36;;;;;;;9.95;3.72;;;;;;;-149.78;100.00;50614.22;5034188;28;20478;-67